Greater Peoria Regional Airport Peoria US
ICAO: KPIA
IATA: PIA
Category: Large
Scheduled Services: Yes

Elevation: 660 ft
TransAlt. 18000 ft.

Airport Communications:
PEORIA APP/DEP:124.675
ASOS:126.1
ATIS:126.1
GND:121.85
ARNG OPS:32.3
ANG OPS:141.55
KANKAKEE RDO:122.35
PEORIA TWR:119.1
UNICOM:122.95

KPIA Zoom In..

If you have problems with the map follow the link
https://www.worldairports.se/pages/airport.php?
ICAO=KPIA

Runways:

(A) RW 04 length 8004 ft width 150 ft
ILS 110.55 / hdg 38

(B) RW 13 length 10104 ft width 150 ft
ILS 109.90 / hdg 126

(C) RW 22 length 8004 ft width 150 ft
---- / hdg 218

(D) RW 31 length 10104 ft width 150 ft
ILS 109.90 / hdg 306

Location; KPIA
Day. 23 / Time. 21.54 Zulu
* Altimeter: 29.96
* Temperature: 01° c. 33.8°f.
* Wind from: 130° Speed 05 kn.
Dewpoint: 00° c.
Visibility: 5 Statute Miles.
Clouds: Overcast 500 ft.
Conditions: Mist.

KPIA 232154Z 13005KT 5SM BR OVC005 01/00 A2996 RMK AO2 SNB2057E50 SLP153 P0001 T00060000


Wind From 130°
Speed 05 kn.

 
 
jpsmedia worldairports.se 2020   terms of use